Estevan Airport
CYEN : now visible

Airfield :











YOU CAN JOIN US ON...

 
LOGIN :

Register | Disclaimer

   EN    FR    IT 

 









Legend :    VFR   Marginal VFR   IFR   Intensive IFR   Very Intensive IFR
Visi :
Ceiling :
>= 8 km
>= 3000ft
5 to 8 km
1000 to 3000 ft
1500m to 5 km
500 to 1000 ft
800 to 1500m
200 to 500 ft
< 800m
< 200 ft
Symbols :   Thunderstorms  Fog  Heavy snow  Heavy precipitations  Wind > 20 kt






- Airport Elevation : 1905 ft
- IATA code : YEN


CYEN - Estevan

CURRENT METAR :
  • 011810Z AUTO 33023G30KT 3SM -SN BKN013 OVC022 M09/M12 A2995 RMK SLP181

EXPIRED METARs :
  • 011742Z AUTO 32019G28KT 1 3/4SM -SN SCT015 OVC022 M09/M12 A2994 RMK SLP179
  • 011718Z AUTO 34020G26KT 3SM -SN BKN013 OVC022 M10/M13 A2994 RMK SLP179
  • 011707Z AUTO 33018G25KT 2 1/2SM -SN BKN015 OVC024 M10/M12 A2994 RMK SLP178
  • 011634Z AUTO 35022G30KT 3SM -SN BKN013 OVC028 M10/M12 A2993 RMK SLP173
  • 011631Z AUTO 34024G29KT 2 1/4SM -SN BKN011 OVC028 M10/M12 A2991 RMK SLP168
  • 011619Z AUTO 34018G29KT 3/4SM -SN VV010 M10/M12 A2991 RMK SLP168
  • 011600Z AUTO 35019G30KT 5/8SM -SN VV011 M10/M12 A2991 RMK SLP168

TAF TAF CYEN
Valid from the 01 at 18:00 until the 02 at 00:00 UTC


011750Z 0118/0124 32020G30KT 11/2SM -SN BR OVC020
TEMPO 0118/0120 6SM BR OVC025
FM012000 32020G30KT 6SM BR OVC030
TEMPO 0120/0122 4SM BR
PROB30 0120/0122 2SM BLSN BR
FM012200 32018G28KT P6SM OVC030
TEMPO 0122/0124 OVC020 RMK FCST BASED ON AUTO OBS. NXT FCST WILL BE ISSUED AT 021145Z



MET'MAP, your aeronautical weather chart ! - Copyright ORBIFLY December 2007 - Disclaimer

ORBIFLY MET'MAP TEAM :

Programming & Development : Alexandra Zaïnal
Concept & original design : Baudouin d'Aumeries
Assistance for programming : Marc-Olivier Méhu
Technical & hardware support : Manuel Goepfert

Contact : metmap@orbifly.com




SOURCES & CREDITS :

   NOAA       Earth
Advisory